sensor_id;sensor_type;location;lat;lon;timestamp;P1;durP1;ratioP1;P2;durP2;ratioP2
24357;SDS011;13668;52.154;5.580;2022-12-18T00:01:47;77.80;;;36.22;;
24357;SDS011;13668;52.154;5.580;2022-12-18T00:04:20;77.82;;;33.90;;
24357;SDS011;13668;52.154;5.580;2022-12-18T00:06:46;73.10;;;34.15;;
24357;SDS011;13668;52.154;5.580;2022-12-18T00:09:12;83.30;;;35.10;;
24357;SDS011;13668;52.154;5.580;2022-12-18T00:11:38;74.90;;;34.00;;
24357;SDS011;13668;52.154;5.580;2022-12-18T00:14:04;78.28;;;36.58;;
24357;SDS011;13668;52.154;5.580;2022-12-18T00:16:30;76.03;;;33.97;;
24357;SDS011;13668;52.154;5.580;2022-12-18T00:18:58;73.80;;;32.60;;
24357;SDS011;13668;52.154;5.580;2022-12-18T00:21:24;74.63;;;31.73;;
24357;SDS011;13668;52.154;5.580;2022-12-18T00:23:50;74.43;;;32.03;;
24357;SDS011;13668;52.154;5.580;2022-12-18T00:26:17;76.75;;;34.92;;
24357;SDS011;13668;52.154;5.580;2022-12-18T00:28:44;69.68;;;34.42;;
24357;SDS011;13668;52.154;5.580;2022-12-18T00:31:11;68.57;;;33.00;;
24357;SDS011;13668;52.154;5.580;2022-12-18T00:33:38;88.18;;;35.13;;
24357;SDS011;13668;52.154;5.580;2022-12-18T00:36:09;83.78;;;35.40;;
24357;SDS011;13668;52.154;5.580;2022-12-18T00:38:38;84.45;;;35.97;;
24357;SDS011;13668;52.154;5.580;2022-12-18T00:41:04;69.85;;;32.97;;
24357;SDS011;13668;52.154;5.580;2022-12-18T00:43:33;78.65;;;35.13;;
24357;SDS011;13668;52.154;5.580;2022-12-18T00:45:59;80.78;;;34.70;;
24357;SDS011;13668;52.154;5.580;2022-12-18T00:48:25;84.70;;;37.45;;
24357;SDS011;13668;52.154;5.580;2022-12-18T00:50:51;84.78;;;37.00;;
24357;SDS011;13668;52.154;5.580;2022-12-18T00:53:17;79.35;;;35.35;;
24357;SDS011;13668;52.154;5.580;2022-12-18T00:55:44;81.18;;;33.75;;
24357;SDS011;13668;52.154;5.580;2022-12-18T00:58:11;79.78;;;34.90;;
24357;SDS011;13668;52.154;5.580;2022-12-18T01:00:37;77.55;;;34.80;;
24357;SDS011;13668;52.154;5.580;2022-12-18T01:03:03;82.30;;;36.17;;
24357;SDS011;13668;52.154;5.580;2022-12-18T01:05:29;84.28;;;35.45;;
24357;SDS011;13668;52.154;5.580;2022-12-18T01:07:55;72.07;;;32.17;;
24357;SDS011;13668;52.154;5.580;2022-12-18T01:10:21;75.32;;;33.55;;
24357;SDS011;13668;52.154;5.580;2022-12-18T01:12:47;77.97;;;32.90;;
24357;SDS011;13668;52.154;5.580;2022-12-18T01:15:14;72.82;;;32.55;;
24357;SDS011;13668;52.154;5.580;2022-12-18T01:17:40;74.20;;;33.65;;
24357;SDS011;13668;52.154;5.580;2022-12-18T01:20:07;78.47;;;33.25;;
24357;SDS011;13668;52.154;5.580;2022-12-18T01:22:33;69.75;;;32.00;;
24357;SDS011;13668;52.154;5.580;2022-12-18T01:24:59;69.75;;;32.47;;
24357;SDS011;13668;52.154;5.580;2022-12-18T01:27:25;72.47;;;31.58;;
24357;SDS011;13668;52.154;5.580;2022-12-18T01:29:51;69.15;;;33.05;;
24357;SDS011;13668;52.154;5.580;2022-12-18T01:32:17;67.45;;;32.65;;
24357;SDS011;13668;52.154;5.580;2022-12-18T01:34:43;68.47;;;31.48;;
24357;SDS011;13668;52.154;5.580;2022-12-18T01:37:09;65.28;;;31.77;;
24357;SDS011;13668;52.154;5.580;2022-12-18T01:39:35;66.47;;;30.40;;
24357;SDS011;13668;52.154;5.580;2022-12-18T01:42:05;67.72;;;32.28;;
24357;SDS011;13668;52.154;5.580;2022-12-18T01:44:54;68.13;;;30.25;;
24357;SDS011;13668;52.154;5.580;2022-12-18T01:50:10;65.05;;;29.83;;
24357;SDS011;13668;52.154;5.580;2022-12-18T01:52:43;66.95;;;32.05;;
24357;SDS011;13668;52.154;5.580;2022-12-18T01:55:11;65.85;;;31.10;;
24357;SDS011;13668;52.154;5.580;2022-12-18T01:57:38;66.25;;;31.48;;
24357;SDS011;13668;52.154;5.580;2022-12-18T02:00:07;69.68;;;31.63;;
24357;SDS011;13668;52.154;5.580;2022-12-18T02:02:34;66.75;;;31.08;;
24357;SDS011;13668;52.154;5.580;2022-12-18T02:05:00;66.97;;;31.02;;
24357;SDS011;13668;52.154;5.580;2022-12-18T02:07:29;62.70;;;30.40;;
24357;SDS011;13668;52.154;5.580;2022-12-18T02:10:10;62.08;;;28.92;;
24357;SDS011;13668;52.154;5.580;2022-12-18T02:12:42;63.03;;;32.17;;
24357;SDS011;13668;52.154;5.580;2022-12-18T02:17:46;66.40;;;30.33;;
24357;SDS011;13668;52.154;5.580;2022-12-18T02:20:16;66.80;;;31.58;;
24357;SDS011;13668;52.154;5.580;2022-12-18T02:22:48;63.65;;;30.65;;
24357;SDS011;13668;52.154;5.580;2022-12-18T02:25:19;62.67;;;29.85;;
24357;SDS011;13668;52.154;5.580;2022-12-18T02:27:47;65.22;;;30.75;;
24357;SDS011;13668;52.154;5.580;2022-12-18T02:30:15;61.85;;;29.67;;
24357;SDS011;13668;52.154;5.580;2022-12-18T02:32:42;64.07;;;31.13;;
24357;SDS011;13668;52.154;5.580;2022-12-18T02:35:11;66.20;;;30.20;;
24357;SDS011;13668;52.154;5.580;2022-12-18T02:37:39;65.50;;;29.58;;
24357;SDS011;13668;52.154;5.580;2022-12-18T02:40:05;63.03;;;28.83;;
24357;SDS011;13668;52.154;5.580;2022-12-18T02:42:31;65.93;;;30.58;;
24357;SDS011;13668;52.154;5.580;2022-12-18T02:44:58;58.97;;;28.63;;
24357;SDS011;13668;52.154;5.580;2022-12-18T02:47:24;62.78;;;26.73;;
24357;SDS011;13668;52.154;5.580;2022-12-18T02:52:55;62.40;;;28.77;;
24357;SDS011;13668;52.154;5.580;2022-12-18T03:00:37;60.47;;;29.52;;
24357;SDS011;13668;52.154;5.580;2022-12-18T03:03:16;60.17;;;29.45;;
24357;SDS011;13668;52.154;5.580;2022-12-18T03:05:56;56.15;;;26.30;;
24357;SDS011;13668;52.154;5.580;2022-12-18T03:08:24;57.15;;;27.90;;
24357;SDS011;13668;52.154;5.580;2022-12-18T03:11:02;49.15;;;25.77;;
24357;SDS011;13668;52.154;5.580;2022-12-18T03:13:32;54.90;;;26.95;;
24357;SDS011;13668;52.154;5.580;2022-12-18T03:15:59;57.70;;;27.92;;
24357;SDS011;13668;52.154;5.580;2022-12-18T03:19:27;57.95;;;27.27;;
24357;SDS011;13668;52.154;5.580;2022-12-18T03:21:23;55.83;;;27.38;;
24357;SDS011;13668;52.154;5.580;2022-12-18T03:23:50;54.38;;;26.38;;
24357;SDS011;13668;52.154;5.580;2022-12-18T03:26:17;49.03;;;25.85;;
24357;SDS011;13668;52.154;5.580;2022-12-18T03:28:46;51.83;;;25.75;;
24357;SDS011;13668;52.154;5.580;2022-12-18T03:31:14;50.13;;;25.90;;
24357;SDS011;13668;52.154;5.580;2022-12-18T03:33:41;46.80;;;25.67;;
24357;SDS011;13668;52.154;5.580;2022-12-18T03:36:09;49.72;;;24.80;;
24357;SDS011;13668;52.154;5.580;2022-12-18T03:38:35;54.95;;;26.85;;
24357;SDS011;13668;52.154;5.580;2022-12-18T03:41:18;45.45;;;23.23;;
24357;SDS011;13668;52.154;5.580;2022-12-18T03:43:48;49.30;;;24.70;;
24357;SDS011;13668;52.154;5.580;2022-12-18T03:46:24;50.28;;;24.50;;
24357;SDS011;13668;52.154;5.580;2022-12-18T03:48:52;46.35;;;24.77;;
24357;SDS011;13668;52.154;5.580;2022-12-18T03:56:13;49.72;;;24.38;;
24357;SDS011;13668;52.154;5.580;2022-12-18T03:58:39;48.28;;;24.98;;
24357;SDS011;13668;52.154;5.580;2022-12-18T04:01:10;48.75;;;25.52;;
24357;SDS011;13668;52.154;5.580;2022-12-18T04:03:38;53.80;;;25.95;;
24357;SDS011;13668;52.154;5.580;2022-12-18T04:06:04;48.97;;;25.48;;
24357;SDS011;13668;52.154;5.580;2022-12-18T04:08:31;48.25;;;23.90;;
24357;SDS011;13668;52.154;5.580;2022-12-18T04:10:58;46.03;;;24.92;;
24357;SDS011;13668;52.154;5.580;2022-12-18T04:13:25;48.10;;;25.90;;
24357;SDS011;13668;52.154;5.580;2022-12-18T04:15:53;49.80;;;24.25;;
24357;SDS011;13668;52.154;5.580;2022-12-18T04:18:19;47.28;;;24.35;;
24357;SDS011;13668;52.154;5.580;2022-12-18T04:20:45;43.25;;;22.83;;
24357;SDS011;13668;52.154;5.580;2022-12-18T04:23:11;42.33;;;23.27;;
24357;SDS011;13668;52.154;5.580;2022-12-18T04:25:37;44.55;;;23.10;;
24357;SDS011;13668;52.154;5.580;2022-12-18T04:28:03;43.83;;;23.73;;
24357;SDS011;13668;52.154;5.580;2022-12-18T04:30:29;41.90;;;22.35;;
24357;SDS011;13668;52.154;5.580;2022-12-18T04:32:55;43.13;;;23.42;;
24357;SDS011;13668;52.154;5.580;2022-12-18T04:35:21;42.60;;;22.83;;
24357;SDS011;13668;52.154;5.580;2022-12-18T04:37:47;43.20;;;22.60;;
24357;SDS011;13668;52.154;5.580;2022-12-18T04:40:13;44.55;;;23.33;;
24357;SDS011;13668;52.154;5.580;2022-12-18T04:42:39;41.40;;;21.13;;
24357;SDS011;13668;52.154;5.580;2022-12-18T04:45:05;39.05;;;21.30;;
24357;SDS011;13668;52.154;5.580;2022-12-18T04:47:31;38.10;;;21.33;;
24357;SDS011;13668;52.154;5.580;2022-12-18T04:49:57;41.72;;;22.10;;
24357;SDS011;13668;52.154;5.580;2022-12-18T04:52:23;39.63;;;21.95;;
24357;SDS011;13668;52.154;5.580;2022-12-18T04:54:49;36.17;;;21.17;;
24357;SDS011;13668;52.154;5.580;2022-12-18T04:57:15;39.00;;;20.65;;
24357;SDS011;13668;52.154;5.580;2022-12-18T04:59:42;33.78;;;20.60;;
24357;SDS011;13668;52.154;5.580;2022-12-18T05:02:08;37.20;;;20.70;;
24357;SDS011;13668;52.154;5.580;2022-12-18T05:04:34;33.25;;;18.40;;
24357;SDS011;13668;52.154;5.580;2022-12-18T05:07:00;40.13;;;21.00;;
24357;SDS011;13668;52.154;5.580;2022-12-18T05:09:26;31.80;;;18.25;;
24357;SDS011;13668;52.154;5.580;2022-12-18T05:11:52;38.55;;;21.40;;
24357;SDS011;13668;52.154;5.580;2022-12-18T05:14:18;31.52;;;19.23;;
24357;SDS011;13668;52.154;5.580;2022-12-18T05:16:44;40.05;;;21.17;;
24357;SDS011;13668;52.154;5.580;2022-12-18T05:19:10;35.55;;;20.30;;
24357;SDS011;13668;52.154;5.580;2022-12-18T05:21:36;34.20;;;20.27;;
24357;SDS011;13668;52.154;5.580;2022-12-18T05:24:02;32.42;;;18.83;;
24357;SDS011;13668;52.154;5.580;2022-12-18T05:26:28;38.53;;;19.00;;
24357;SDS011;13668;52.154;5.580;2022-12-18T05:28:57;39.08;;;20.05;;
24357;SDS011;13668;52.154;5.580;2022-12-18T05:31:23;33.72;;;18.95;;
24357;SDS011;13668;52.154;5.580;2022-12-18T05:33:49;32.30;;;18.20;;
24357;SDS011;13668;52.154;5.580;2022-12-18T05:36:15;33.67;;;19.45;;
24357;SDS011;13668;52.154;5.580;2022-12-18T05:38:41;33.58;;;19.23;;
24357;SDS011;13668;52.154;5.580;2022-12-18T05:41:08;32.58;;;19.63;;
24357;SDS011;13668;52.154;5.580;2022-12-18T05:43:34;36.83;;;19.73;;
24357;SDS011;13668;52.154;5.580;2022-12-18T05:46:04;31.90;;;19.70;;
24357;SDS011;13668;52.154;5.580;2022-12-18T05:48:30;35.45;;;19.42;;
24357;SDS011;13668;52.154;5.580;2022-12-18T05:51:02;32.03;;;18.17;;
24357;SDS011;13668;52.154;5.580;2022-12-18T05:53:28;28.98;;;18.20;;
24357;SDS011;13668;52.154;5.580;2022-12-18T05:55:54;30.65;;;17.45;;
24357;SDS011;13668;52.154;5.580;2022-12-18T05:58:25;27.50;;;16.55;;
24357;SDS011;13668;52.154;5.580;2022-12-18T06:00:51;30.33;;;17.67;;
24357;SDS011;13668;52.154;5.580;2022-12-18T06:03:17;22.33;;;16.05;;
24357;SDS011;13668;52.154;5.580;2022-12-18T06:05:44;27.30;;;16.67;;
24357;SDS011;13668;52.154;5.580;2022-12-18T06:08:10;28.95;;;16.98;;
24357;SDS011;13668;52.154;5.580;2022-12-18T06:10:36;33.42;;;17.25;;
24357;SDS011;13668;52.154;5.580;2022-12-18T06:13:02;27.50;;;16.67;;
24357;SDS011;13668;52.154;5.580;2022-12-18T06:15:28;28.55;;;16.25;;
24357;SDS011;13668;52.154;5.580;2022-12-18T06:17:54;29.67;;;16.08;;
24357;SDS011;13668;52.154;5.580;2022-12-18T06:20:20;28.88;;;17.05;;
24357;SDS011;13668;52.154;5.580;2022-12-18T06:22:46;26.05;;;16.00;;
24357;SDS011;13668;52.154;5.580;2022-12-18T06:25:12;32.85;;;17.73;;
24357;SDS011;13668;52.154;5.580;2022-12-18T06:27:38;27.38;;;17.02;;
24357;SDS011;13668;52.154;5.580;2022-12-18T06:30:04;29.60;;;18.67;;
24357;SDS011;13668;52.154;5.580;2022-12-18T06:32:30;25.60;;;16.45;;
24357;SDS011;13668;52.154;5.580;2022-12-18T06:34:56;27.38;;;16.85;;
24357;SDS011;13668;52.154;5.580;2022-12-18T06:37:22;25.33;;;15.80;;
24357;SDS011;13668;52.154;5.580;2022-12-18T06:39:52;25.95;;;17.38;;
24357;SDS011;13668;52.154;5.580;2022-12-18T06:42:18;28.42;;;16.58;;
24357;SDS011;13668;52.154;5.580;2022-12-18T06:44:44;25.23;;;15.95;;
24357;SDS011;13668;52.154;5.580;2022-12-18T06:47:10;31.63;;;17.88;;
24357;SDS011;13668;52.154;5.580;2022-12-18T06:49:36;24.05;;;16.15;;
24357;SDS011;13668;52.154;5.580;2022-12-18T06:52:02;26.48;;;16.20;;
24357;SDS011;13668;52.154;5.580;2022-12-18T06:54:28;26.80;;;16.67;;
24357;SDS011;13668;52.154;5.580;2022-12-18T06:56:57;29.52;;;15.73;;
24357;SDS011;13668;52.154;5.580;2022-12-18T06:59:23;25.80;;;16.25;;
24357;SDS011;13668;52.154;5.580;2022-12-18T07:01:49;25.05;;;16.45;;
24357;SDS011;13668;52.154;5.580;2022-12-18T07:04:15;27.42;;;16.52;;
24357;SDS011;13668;52.154;5.580;2022-12-18T07:06:41;26.25;;;16.50;;
24357;SDS011;13668;52.154;5.580;2022-12-18T07:09:07;29.08;;;17.20;;
24357;SDS011;13668;52.154;5.580;2022-12-18T07:11:33;25.02;;;16.65;;
24357;SDS011;13668;52.154;5.580;2022-12-18T07:13:59;28.35;;;17.08;;
24357;SDS011;13668;52.154;5.580;2022-12-18T07:16:25;28.67;;;17.65;;
24357;SDS011;13668;52.154;5.580;2022-12-18T07:18:53;32.47;;;16.20;;
24357;SDS011;13668;52.154;5.580;2022-12-18T07:21:20;25.88;;;15.88;;
24357;SDS011;13668;52.154;5.580;2022-12-18T07:23:46;26.38;;;16.52;;
24357;SDS011;13668;52.154;5.580;2022-12-18T07:26:13;24.63;;;15.95;;
24357;SDS011;13668;52.154;5.580;2022-12-18T07:28:40;26.92;;;16.27;;
24357;SDS011;13668;52.154;5.580;2022-12-18T07:31:06;24.40;;;16.42;;
24357;SDS011;13668;52.154;5.580;2022-12-18T07:33:33;28.65;;;16.55;;
24357;SDS011;13668;52.154;5.580;2022-12-18T07:36:03;25.75;;;15.75;;
24357;SDS011;13668;52.154;5.580;2022-12-18T07:38:29;25.55;;;15.07;;
24357;SDS011;13668;52.154;5.580;2022-12-18T07:41:00;26.50;;;16.40;;
24357;SDS011;13668;52.154;5.580;2022-12-18T07:43:26;31.67;;;17.48;;
24357;SDS011;13668;52.154;5.580;2022-12-18T07:45:55;29.20;;;17.02;;
24357;SDS011;13668;52.154;5.580;2022-12-18T07:48:21;27.20;;;17.70;;
24357;SDS011;13668;52.154;5.580;2022-12-18T07:50:47;27.42;;;18.27;;
24357;SDS011;13668;52.154;5.580;2022-12-18T07:53:13;24.80;;;16.67;;
24357;SDS011;13668;52.154;5.580;2022-12-18T07:55:39;26.63;;;16.48;;
24357;SDS011;13668;52.154;5.580;2022-12-18T07:58:06;25.67;;;16.88;;
24357;SDS011;13668;52.154;5.580;2022-12-18T08:00:33;27.85;;;16.45;;
24357;SDS011;13668;52.154;5.580;2022-12-18T08:02:59;22.55;;;15.20;;
24357;SDS011;13668;52.154;5.580;2022-12-18T08:05:25;27.38;;;18.17;;
24357;SDS011;13668;52.154;5.580;2022-12-18T08:07:51;29.42;;;17.77;;
24357;SDS011;13668;52.154;5.580;2022-12-18T08:10:20;28.35;;;16.88;;
24357;SDS011;13668;52.154;5.580;2022-12-18T08:12:50;26.25;;;17.40;;
24357;SDS011;13668;52.154;5.580;2022-12-18T08:15:16;29.85;;;17.70;;
24357;SDS011;13668;52.154;5.580;2022-12-18T08:17:42;22.67;;;16.35;;
24357;SDS011;13668;52.154;5.580;2022-12-18T08:20:08;29.45;;;17.13;;
24357;SDS011;13668;52.154;5.580;2022-12-18T08:22:37;26.70;;;15.90;;
24357;SDS011;13668;52.154;5.580;2022-12-18T08:25:04;26.17;;;17.10;;
24357;SDS011;13668;52.154;5.580;2022-12-18T08:27:30;23.52;;;17.17;;
24357;SDS011;13668;52.154;5.580;2022-12-18T08:29:57;30.33;;;16.63;;
24357;SDS011;13668;52.154;5.580;2022-12-18T08:32:23;25.85;;;16.90;;
24357;SDS011;13668;52.154;5.580;2022-12-18T08:34:49;24.63;;;15.63;;
24357;SDS011;13668;52.154;5.580;2022-12-18T08:37:15;23.88;;;16.23;;
24357;SDS011;13668;52.154;5.580;2022-12-18T08:39:41;23.20;;;16.38;;
24357;SDS011;13668;52.154;5.580;2022-12-18T08:42:07;25.48;;;15.15;;
24357;SDS011;13668;52.154;5.580;2022-12-18T08:44:52;24.27;;;14.82;;
24357;SDS011;13668;52.154;5.580;2022-12-18T08:47:18;22.60;;;14.65;;
24357;SDS011;13668;52.154;5.580;2022-12-18T08:49:44;27.98;;;15.32;;
24357;SDS011;13668;52.154;5.580;2022-12-18T08:52:10;23.27;;;14.77;;
24357;SDS011;13668;52.154;5.580;2022-12-18T08:54:38;28.63;;;15.70;;
24357;SDS011;13668;52.154;5.580;2022-12-18T08:57:04;21.60;;;14.27;;
24357;SDS011;13668;52.154;5.580;2022-12-18T08:59:30;25.48;;;15.43;;
24357;SDS011;13668;52.154;5.580;2022-12-18T09:01:56;23.70;;;15.52;;
24357;SDS011;13668;52.154;5.580;2022-12-18T09:04:22;22.02;;;14.80;;
24357;SDS011;13668;52.154;5.580;2022-12-18T09:06:48;22.27;;;14.20;;
24357;SDS011;13668;52.154;5.580;2022-12-18T09:09:14;18.75;;;12.38;;
24357;SDS011;13668;52.154;5.580;2022-12-18T09:11:40;15.98;;;12.13;;
24357;SDS011;13668;52.154;5.580;2022-12-18T09:14:06;19.33;;;12.15;;
24357;SDS011;13668;52.154;5.580;2022-12-18T09:16:32;18.10;;;12.35;;
24357;SDS011;13668;52.154;5.580;2022-12-18T09:19:00;20.58;;;12.25;;
24357;SDS011;13668;52.154;5.580;2022-12-18T09:21:30;19.25;;;13.45;;
24357;SDS011;13668;52.154;5.580;2022-12-18T09:23:57;19.27;;;13.27;;
24357;SDS011;13668;52.154;5.580;2022-12-18T09:26:23;18.60;;;11.95;;
24357;SDS011;13668;52.154;5.580;2022-12-18T09:28:49;17.70;;;12.30;;
24357;SDS011;13668;52.154;5.580;2022-12-18T09:31:17;21.10;;;11.25;;
24357;SDS011;13668;52.154;5.580;2022-12-18T09:33:43;19.05;;;11.60;;
24357;SDS011;13668;52.154;5.580;2022-12-18T09:36:10;17.23;;;11.50;;
24357;SDS011;13668;52.154;5.580;2022-12-18T09:38:37;17.02;;;12.30;;
24357;SDS011;13668;52.154;5.580;2022-12-18T09:41:50;17.33;;;11.90;;
24357;SDS011;13668;52.154;5.580;2022-12-18T09:43:50;19.30;;;12.02;;
24357;SDS011;13668;52.154;5.580;2022-12-18T09:46:18;17.90;;;11.43;;
24357;SDS011;13668;52.154;5.580;2022-12-18T09:48:46;17.35;;;10.82;;
24357;SDS011;13668;52.154;5.580;2022-12-18T09:51:15;16.92;;;11.38;;
24357;SDS011;13668;52.154;5.580;2022-12-18T09:53:44;15.43;;;10.82;;
24357;SDS011;13668;52.154;5.580;2022-12-18T09:56:15;15.82;;;11.35;;
24357;SDS011;13668;52.154;5.580;2022-12-18T09:58:47;19.58;;;11.57;;
24357;SDS011;13668;52.154;5.580;2022-12-18T10:01:15;16.25;;;10.50;;
24357;SDS011;13668;52.154;5.580;2022-12-18T10:03:44;19.17;;;11.30;;
24357;SDS011;13668;52.154;5.580;2022-12-18T10:14:20;18.58;;;11.10;;
24357;SDS011;13668;52.154;5.580;2022-12-18T10:27:17;17.45;;;11.02;;
24357;SDS011;13668;52.154;5.580;2022-12-18T10:29:43;16.75;;;10.23;;
24357;SDS011;13668;52.154;5.580;2022-12-18T10:32:14;17.88;;;11.13;;
24357;SDS011;13668;52.154;5.580;2022-12-18T10:34:44;19.48;;;11.07;;
24357;SDS011;13668;52.154;5.580;2022-12-18T10:37:12;17.13;;;11.20;;
24357;SDS011;13668;52.154;5.580;2022-12-18T10:39:40;16.95;;;10.93;;
24357;SDS011;13668;52.154;5.580;2022-12-18T10:42:11;18.83;;;11.70;;
24357;SDS011;13668;52.154;5.580;2022-12-18T10:44:40;18.55;;;10.65;;
24357;SDS011;13668;52.154;5.580;2022-12-18T10:47:06;16.08;;;10.82;;
24357;SDS011;13668;52.154;5.580;2022-12-18T10:49:36;19.35;;;11.10;;
24357;SDS011;13668;52.154;5.580;2022-12-18T10:52:06;18.33;;;11.45;;
24357;SDS011;13668;52.154;5.580;2022-12-18T10:54:33;21.05;;;11.93;;
24357;SDS011;13668;52.154;5.580;2022-12-18T10:57:16;15.23;;;10.88;;
24357;SDS011;13668;52.154;5.580;2022-12-18T10:59:55;17.17;;;12.13;;
24357;SDS011;13668;52.154;5.580;2022-12-18T11:02:28;18.40;;;11.18;;
24357;SDS011;13668;52.154;5.580;2022-12-18T11:05:03;15.88;;;11.20;;
24357;SDS011;13668;52.154;5.580;2022-12-18T11:07:49;17.63;;;10.63;;
24357;SDS011;13668;52.154;5.580;2022-12-18T11:10:16;15.68;;;10.50;;
24357;SDS011;13668;52.154;5.580;2022-12-18T11:12:42;15.57;;;10.20;;
24357;SDS011;13668;52.154;5.580;2022-12-18T11:15:15;16.85;;;10.48;;
24357;SDS011;13668;52.154;5.580;2022-12-18T11:17:42;15.85;;;10.30;;
24357;SDS011;13668;52.154;5.580;2022-12-18T11:20:23;17.15;;;10.77;;
24357;SDS011;13668;52.154;5.580;2022-12-18T11:22:59;18.65;;;11.30;;
24357;SDS011;13668;52.154;5.580;2022-12-18T11:25:29;16.48;;;11.27;;
24357;SDS011;13668;52.154;5.580;2022-12-18T11:28:00;17.08;;;11.48;;
24357;SDS011;13668;52.154;5.580;2022-12-18T11:30:30;16.60;;;10.90;;
24357;SDS011;13668;52.154;5.580;2022-12-18T11:32:58;15.85;;;10.60;;
24357;SDS011;13668;52.154;5.580;2022-12-18T11:38:53;17.70;;;10.90;;
24357;SDS011;13668;52.154;5.580;2022-12-18T11:43:41;16.27;;;10.38;;
24357;SDS011;13668;52.154;5.580;2022-12-18T11:48:40;16.02;;;10.45;;
24357;SDS011;13668;52.154;5.580;2022-12-18T11:51:14;16.63;;;10.63;;
24357;SDS011;13668;52.154;5.580;2022-12-18T11:53:44;16.90;;;11.23;;
24357;SDS011;13668;52.154;5.580;2022-12-18T12:06:35;15.45;;;10.02;;
24357;SDS011;13668;52.154;5.580;2022-12-18T12:16:59;14.80;;;10.88;;
24357;SDS011;13668;52.154;5.580;2022-12-18T12:35:06;17.00;;;10.93;;
24357;SDS011;13668;52.154;5.580;2022-12-18T12:37:42;16.23;;;11.32;;
24357;SDS011;13668;52.154;5.580;2022-12-18T12:40:12;17.08;;;11.85;;
24357;SDS011;13668;52.154;5.580;2022-12-18T12:42:44;20.15;;;12.43;;
24357;SDS011;13668;52.154;5.580;2022-12-18T12:45:36;20.50;;;12.23;;
24357;SDS011;13668;52.154;5.580;2022-12-18T12:48:03;19.33;;;11.32;;
24357;SDS011;13668;52.154;5.580;2022-12-18T12:50:30;19.13;;;12.50;;
24357;SDS011;13668;52.154;5.580;2022-12-18T12:52:59;19.92;;;13.38;;
24357;SDS011;13668;52.154;5.580;2022-12-18T12:55:28;17.58;;;11.90;;
24357;SDS011;13668;52.154;5.580;2022-12-18T12:57:56;20.38;;;12.45;;
24357;SDS011;13668;52.154;5.580;2022-12-18T13:00:23;19.58;;;12.38;;
24357;SDS011;13668;52.154;5.580;2022-12-18T13:02:52;20.45;;;12.48;;
24357;SDS011;13668;52.154;5.580;2022-12-18T13:05:30;20.25;;;13.00;;
24357;SDS011;13668;52.154;5.580;2022-12-18T13:08:04;17.23;;;11.65;;
24357;SDS011;13668;52.154;5.580;2022-12-18T13:15:24;21.70;;;13.60;;
24357;SDS011;13668;52.154;5.580;2022-12-18T13:18:11;19.05;;;12.60;;
24357;SDS011;13668;52.154;5.580;2022-12-18T13:20:43;22.08;;;12.60;;
24357;SDS011;13668;52.154;5.580;2022-12-18T13:23:23;23.33;;;13.80;;
24357;SDS011;13668;52.154;5.580;2022-12-18T13:25:55;20.92;;;13.00;;
24357;SDS011;13668;52.154;5.580;2022-12-18T13:28:23;18.88;;;12.35;;
24357;SDS011;13668;52.154;5.580;2022-12-18T13:30:56;16.30;;;11.25;;
24357;SDS011;13668;52.154;5.580;2022-12-18T13:35:55;17.55;;;11.43;;
24357;SDS011;13668;52.154;5.580;2022-12-18T13:40:55;18.65;;;12.52;;
24357;SDS011;13668;52.154;5.580;2022-12-18T13:48:33;16.85;;;12.25;;
24357;SDS011;13668;52.154;5.580;2022-12-18T13:51:06;20.23;;;13.45;;
24357;SDS011;13668;52.154;5.580;2022-12-18T13:53:38;19.08;;;13.48;;
24357;SDS011;13668;52.154;5.580;2022-12-18T13:56:05;21.70;;;12.57;;
24357;SDS011;13668;52.154;5.580;2022-12-18T13:58:31;23.45;;;13.93;;
24357;SDS011;13668;52.154;5.580;2022-12-18T14:00:58;24.80;;;13.23;;
24357;SDS011;13668;52.154;5.580;2022-12-18T14:03:25;22.63;;;13.07;;
24357;SDS011;13668;52.154;5.580;2022-12-18T14:05:56;20.48;;;13.25;;
24357;SDS011;13668;52.154;5.580;2022-12-18T14:08:29;25.05;;;15.40;;
24357;SDS011;13668;52.154;5.580;2022-12-18T14:10:57;23.00;;;13.02;;
24357;SDS011;13668;52.154;5.580;2022-12-18T14:15:50;19.50;;;12.65;;
24357;SDS011;13668;52.154;5.580;2022-12-18T14:18:20;25.30;;;15.20;;
24357;SDS011;13668;52.154;5.580;2022-12-18T14:20:48;31.15;;;19.27;;
24357;SDS011;13668;52.154;5.580;2022-12-18T14:26:00;23.95;;;14.85;;
24357;SDS011;13668;52.154;5.580;2022-12-18T14:28:26;24.13;;;14.65;;
24357;SDS011;13668;52.154;5.580;2022-12-18T14:30:53;23.13;;;13.75;;
24357;SDS011;13668;52.154;5.580;2022-12-18T14:33:26;20.58;;;12.32;;
24357;SDS011;13668;52.154;5.580;2022-12-18T14:38:26;20.33;;;13.52;;
24357;SDS011;13668;52.154;5.580;2022-12-18T14:40:53;22.33;;;12.25;;
24357;SDS011;13668;52.154;5.580;2022-12-18T14:43:20;19.48;;;13.45;;
24357;SDS011;13668;52.154;5.580;2022-12-18T14:45:49;23.73;;;13.35;;
24357;SDS011;13668;52.154;5.580;2022-12-18T14:48:17;21.35;;;13.18;;
24357;SDS011;13668;52.154;5.580;2022-12-18T14:50:44;23.50;;;14.55;;
24357;SDS011;13668;52.154;5.580;2022-12-18T14:53:27;22.42;;;13.35;;
24357;SDS011;13668;52.154;5.580;2022-12-18T14:55:54;22.02;;;14.25;;
24357;SDS011;13668;52.154;5.580;2022-12-18T14:58:20;20.23;;;13.57;;
24357;SDS011;13668;52.154;5.580;2022-12-18T15:00:50;20.98;;;12.75;;
24357;SDS011;13668;52.154;5.580;2022-12-18T15:03:18;18.95;;;11.93;;
24357;SDS011;13668;52.154;5.580;2022-12-18T15:05:45;22.50;;;11.75;;
24357;SDS011;13668;52.154;5.580;2022-12-18T15:08:27;19.42;;;12.43;;
24357;SDS011;13668;52.154;5.580;2022-12-18T15:10:56;22.98;;;12.82;;
24357;SDS011;13668;52.154;5.580;2022-12-18T15:13:23;20.75;;;13.25;;
24357;SDS011;13668;52.154;5.580;2022-12-18T15:15:50;18.25;;;12.27;;
24357;SDS011;13668;52.154;5.580;2022-12-18T15:18:17;21.98;;;13.48;;
24357;SDS011;13668;52.154;5.580;2022-12-18T15:20:48;19.27;;;13.35;;
24357;SDS011;13668;52.154;5.580;2022-12-18T15:23:19;22.55;;;14.32;;
24357;SDS011;13668;52.154;5.580;2022-12-18T15:25:46;22.13;;;12.68;;
24357;SDS011;13668;52.154;5.580;2022-12-18T15:28:15;21.30;;;13.80;;
24357;SDS011;13668;52.154;5.580;2022-12-18T15:30:57;22.70;;;15.00;;
24357;SDS011;13668;52.154;5.580;2022-12-18T15:33:24;19.35;;;13.20;;
24357;SDS011;13668;52.154;5.580;2022-12-18T15:36:01;20.92;;;13.27;;
24357;SDS011;13668;52.154;5.580;2022-12-18T15:38:28;21.63;;;13.88;;
24357;SDS011;13668;52.154;5.580;2022-12-18T15:40:54;21.67;;;14.25;;
24357;SDS011;13668;52.154;5.580;2022-12-18T15:43:21;21.90;;;14.40;;
24357;SDS011;13668;52.154;5.580;2022-12-18T15:46:03;22.65;;;13.93;;
24357;SDS011;13668;52.154;5.580;2022-12-18T15:48:31;21.92;;;14.18;;
24357;SDS011;13668;52.154;5.580;2022-12-18T15:50:57;23.95;;;14.38;;
24357;SDS011;13668;52.154;5.580;2022-12-18T15:53:24;22.33;;;13.95;;
24357;SDS011;13668;52.154;5.580;2022-12-18T15:55:51;22.67;;;14.25;;
24357;SDS011;13668;52.154;5.580;2022-12-18T15:58:35;21.88;;;13.73;;
24357;SDS011;13668;52.154;5.580;2022-12-18T16:01:01;24.65;;;14.25;;
24357;SDS011;13668;52.154;5.580;2022-12-18T16:03:28;26.30;;;15.32;;
24357;SDS011;13668;52.154;5.580;2022-12-18T16:05:54;20.02;;;13.40;;
24357;SDS011;13668;52.154;5.580;2022-12-18T16:08:20;28.65;;;15.00;;
24357;SDS011;13668;52.154;5.580;2022-12-18T16:10:46;28.58;;;15.13;;